Henderson, Kentucky
Current Conditions -  °F | °C
As of 11:35 AM on Monday 22 Dec 2014 (Local Time) from KEHR Reporting Station
Overcast Overcast  
Wind Chill: 44°   Ceiling: 3200
Heat Index: 48°   Visibility: 9mi
Dew Point: 43°   Wind: 10mph
Humidity: 82%   Direction: 140°SE
Pressure: 29.79"   Gusts: NA
Location:  37.83°N, 87.6°W
Report Text: KEHR 221735Z AUTO 14009KT 9SM SCT015 BKN032 OVC085 09/06 A2979 RMK AO1
Loading
Personal Weather Stations






























Interactive Weather Map New forecast layout! Learn more

10-Day Weather Forecast

Advertisements
Track Severe Weather on mobile